aviador You're here:

KDMO Decoded Metar

SEDALIA in MO, USA
Report Time2018-04-24 01:53:00
UTC Time2018-04-24 02:29:54
Flight Rules vfr VFR
Wind010° at 07 kt
W.Decomp.*RWY 36: 6.9 kt HW 0.9 kt RCW
RWY 05: 5.1 kt HW 4.8 kt LCW
W.Rank010° ranks 24
Current wind is below 010° avg. (7.9)
Visibility9999 m
Phenomena:N/A
Clouds:N/A
Expected CloudBase > 4,800 ft AGL from Temp-Dew spread
CeilingNone
Temp16°C (ISA +3)
Dew Point04°C (45% RH)
AAT12.2°C
QNH1017 hPa
Density Alt1,207 ft
Elevation899 ft
Report Wrong Elevation
Raw Report
KDMO 240153Z AUTO 01007KT 10SM CLR 16/04 A3002 RMK AO2 SLP162
T01560039=

Extra information for KDMO:More info

Metar Taf Metar & Taf Last 4 Metars F.Rules Stats Wind Profile Meteogram Temp Stats Airport Information Weather charts Add Link Nearby VenuesMetar ALERT Operation Metar Decoded Social comments

AIRNAV info for KDMO